Ana Sayfa
METAR-TAF:

METAR-TAF

Havaalanları :

Webster_Field

St. Inigoes, Maryland, Amerika Birleşik Devletleri

Enlem: 38-08-56N, Boylam: 076-25-12W, yükseklik: 6 m

Güncel hava durumu gözlemi

Rapor saat 22:53 UTC de 34 dakika önce yapıldı.
Sakin rüzgar
Sıcaklık 8°C
Nem 71%
Basınç 1028 hPa
Görüş mesafesi: 16.1 km
5000 ft yükseklikte çok bulutlu

METAR: KNUI 082253Z AUTO 00000KT 10SM OVC050 08/03 A3037 RMK AO2 SLP284 T00780028 $

Saat: 18:27 (23:27 UTC)


TAF: eksik

4.000'den fazla havaalanı için hava durumu gözlemleri ve tahminleri (METAR ve TAF raporları).

Kullanılabilir istasyonlar harita üzerinde sarı ve kırmızı noktalarla gösterilir.

İstasyonun adını görmek için fareyi noktanın üzerinde gezdirin.

Sonrasında hava gözlem ve tahminlerini görmek için tıklayın.

Haritayı değiştirmek için: yaklaştırmak için siyah artı işaretli yeşil düğmeye ve uzaklaştırmak için de eksi işaretli düğmeye hızla tıklayın; bitişik haritalar için yeşil okları kullanın.


METAR-TAF: